Time;durP1;ratioP1;P1;durP2;ratioP2;P2;SDS_P1;SDS_P2;PMS_P1;PMS_P2;Temp;Humidity;BMP_temperature;BMP_pressure;BME280_temperature;BME280_humidity;BME280_pressure;Samples;Min_cycle;Max_cycle;Signal;HPM_P1;HPM_P2
2021/07/14 00:01:48;;;;;;;81.80;43.17;;;18.60;99.90;;;;;;5002189;28;20053;-67
2021/07/14 00:04:15;;;;;;;79.40;41.03;;;18.60;99.90;;;;;;5003236;28;20054;-67
2021/07/14 00:06:41;;;;;;;103.28;49.22;;;18.60;99.90;;;;;;4994200;28;20073;-67
2021/07/14 00:09:08;;;;;;;84.50;45.45;;;18.60;99.90;;;;;;5002385;28;20046;-67
2021/07/14 00:11:41;;;;;;;95.30;47.83;;;18.60;99.90;;;;;;5003138;28;20042;-67
2021/07/14 00:22:24;;;;;;;87.03;44.05;;;18.50;99.90;;;;;;4990076;28;20289;-69
2021/07/14 00:24:52;;;;;;;103.38;44.30;;;18.50;99.90;;;;;;5003743;28;20359;-68
2021/07/14 00:27:19;;;;;;;87.28;42.97;;;18.50;99.90;;;;;;5000805;28;20125;-67
2021/07/14 00:29:56;;;;;;;100.25;46.40;;;18.50;99.90;;;;;;5002578;28;20058;-68
2021/07/14 00:32:27;;;;;;;109.20;47.30;;;18.50;99.90;;;;;;5001667;28;20042;-68
2021/07/14 00:34:54;;;;;;;89.35;44.38;;;18.50;99.90;;;;;;4993878;28;20053;-67
2021/07/14 00:37:20;;;;;;;97.78;47.63;;;18.50;99.90;;;;;;4997583;28;20441;-67
2021/07/14 00:39:48;;;;;;;93.40;44.15;;;18.50;99.90;;;;;;5001621;28;20082;-67
2021/07/14 00:42:14;;;;;;;105.68;47.10;;;18.50;99.90;;;;;;5002813;28;20129;-67
2021/07/14 00:44:40;;;;;;;92.65;43.28;;;18.50;99.90;;;;;;5007762;28;20046;-68
2021/07/14 00:47:07;;;;;;;96.50;39.75;;;18.50;99.90;;;;;;5006169;28;20042;-67
2021/07/14 00:49:34;;;;;;;114.60;47.38;;;18.50;99.90;;;;;;5002194;28;20065;-67
2021/07/14 00:52:00;;;;;;;108.55;45.67;;;18.50;99.90;;;;;;5006007;28;20069;-67
2021/07/14 00:54:26;;;;;;;116.30;46.25;;;18.50;99.90;;;;;;5006037;28;20474;-67
2021/07/14 00:56:52;;;;;;;130.82;47.97;;;18.40;99.90;;;;;;5001586;28;20050;-67
2021/07/14 00:59:18;;;;;;;144.48;52.35;;;18.40;99.90;;;;;;4998142;28;20050;-68
2021/07/14 01:01:45;;;;;;;168.18;53.05;;;18.40;99.90;;;;;;4999804;28;20081;-68
2021/07/14 01:04:15;;;;;;;198.02;59.60;;;18.40;99.90;;;;;;5006746;28;20066;-69
2021/07/14 01:06:49;;;;;;;184.30;59.85;;;18.40;99.90;;;;;;5001267;28;20454;-67
2021/07/14 01:09:20;;;;;;;175.05;56.05;;;18.40;99.90;;;;;;4996645;28;20062;-67
2021/07/14 01:11:47;;;;;;;193.25;55.08;;;18.40;99.90;;;;;;5004861;28;20069;-67
2021/07/14 01:14:22;;;;;;;213.93;58.63;;;18.30;99.90;;;;;;5006618;28;20072;-69
2021/07/14 01:17:12;;;;;;;297.52;69.43;;;18.30;99.90;;;;;;5005784;28;20161;-67
2021/07/14 01:20:10;;;;;;;260.85;63.63;;;18.30;99.90;;;;;;5005351;28;20050;-68
2021/07/14 01:22:57;;;;;;;252.35;62.63;;;18.30;99.90;;;;;;5000957;28;20065;-67
2021/07/14 01:25:41;;;;;;;247.32;54.50;;;18.30;99.90;;;;;;5005271;28;20067;-68
2021/07/14 01:28:08;;;;;;;301.73;62.33;;;18.30;99.90;;;;;;5005482;28;20042;-68
2021/07/14 01:30:34;;;;;;;272.85;62.33;;;18.30;99.90;;;;;;5004514;28;20050;-68
2021/07/14 01:33:02;;;;;;;297.52;65.38;;;18.30;99.90;;;;;;4994577;28;20055;-68
2021/07/14 01:35:34;;;;;;;302.30;61.88;;;18.30;99.90;;;;;;5003567;28;20046;-67
2021/07/14 01:38:01;;;;;;;309.73;64.95;;;18.20;99.90;;;;;;5006013;28;20141;-68
2021/07/14 01:40:28;;;;;;;246.27;51.00;;;18.20;99.90;;;;;;5002986;28;20061;-68
2021/07/14 01:43:00;;;;;;;247.38;55.13;;;18.20;99.90;;;;;;4997112;28;20062;-68
2021/07/14 01:45:32;;;;;;;241.65;55.47;;;18.20;99.90;;;;;;5000022;28;20065;-68
2021/07/14 01:48:01;;;;;;;198.60;52.00;;;18.20;99.90;;;;;;5000976;28;20427;-68
2021/07/14 01:50:29;;;;;;;202.25;53.58;;;18.20;99.90;;;;;;4998183;28;20046;-68
2021/07/14 01:52:56;;;;;;;193.75;50.63;;;18.20;99.90;;;;;;5005571;28;20043;-68
2021/07/14 01:55:23;;;;;;;194.82;52.88;;;18.20;99.90;;;;;;5002957;28;20126;-68
2021/07/14 01:57:52;;;;;;;190.60;49.88;;;18.20;99.90;;;;;;5002318;28;20049;-69
2021/07/14 02:00:18;;;;;;;190.48;51.17;;;18.20;99.90;;;;;;5005277;28;20050;-69
2021/07/14 02:02:53;;;;;;;190.70;51.67;;;18.20;99.90;;;;;;5005394;28;20050;-68
2021/07/14 02:05:19;;;;;;;143.95;37.00;;;18.20;99.90;;;;;;5005623;28;20058;-68
2021/07/14 02:07:45;;;;;;;188.18;47.90;;;18.20;99.90;;;;;;4998570;28;20065;-68
2021/07/14 02:10:13;;;;;;;170.13;43.63;;;18.20;99.90;;;;;;4999567;28;21079;-68
2021/07/14 02:12:43;;;;;;;148.35;41.20;;;18.20;99.90;;;;;;4997776;28;20104;-68
2021/07/14 02:15:10;;;;;;;198.98;47.47;;;18.10;99.90;;;;;;5004965;28;20046;-69
2021/07/14 02:17:44;;;;;;;169.82;45.67;;;18.20;99.90;;;;;;5004527;28;20038;-68
2021/07/14 02:20:17;;;;;;;215.52;47.20;;;18.20;99.90;;;;;;5002433;28;20065;-68
2021/07/14 02:22:44;;;;;;;189.32;48.25;;;18.20;99.90;;;;;;5004126;28;20066;-68
2021/07/14 02:25:10;;;;;;;211.27;42.80;;;18.20;99.90;;;;;;4995397;28;20444;-68
2021/07/14 02:27:37;;;;;;;210.48;44.83;;;18.10;99.90;;;;;;4995989;28;20042;-68
2021/07/14 02:30:21;;;;;;;288.23;52.38;;;18.10;99.90;;;;;;4995661;28;20062;-68
2021/07/14 02:32:52;;;;;;;249.48;48.80;;;18.10;99.90;;;;;;5004913;28;20050;-68
2021/07/14 02:35:19;;;;;;;258.33;51.53;;;18.10;99.90;;;;;;4995757;28;20038;-68
2021/07/14 02:37:59;;;;;;;232.30;51.20;;;18.10;99.90;;;;;;5004582;28;20072;-68
2021/07/14 02:40:39;;;;;;;193.10;41.58;;;18.10;99.90;;;;;;4995797;28;20046;-68
2021/07/14 02:43:06;;;;;;;217.90;51.47;;;18.10;99.90;;;;;;5004597;28;20066;-69
2021/07/14 02:45:35;;;;;;;214.23;53.60;;;18.10;99.90;;;;;;5004257;28;20046;-68
2021/07/14 02:48:03;;;;;;;186.60;50.95;;;18.10;99.90;;;;;;4995269;28;20053;-68
2021/07/14 02:50:31;;;;;;;;;;;18.10;99.90;;;;;;5001507;28;20058;-68
2021/07/14 02:53:04;;;;;;;174.93;50.05;;;18.10;99.90;;;;;;5000267;28;20010;-68
2021/07/14 02:55:33;;;;;;;185.65;51.90;;;18.10;99.90;;;;;;4986035;28;20046;-68
2021/07/14 02:58:01;;;;;;;161.30;53.20;;;18.10;99.90;;;;;;4991646;28;20101;-68
2021/07/14 03:00:29;;;;;;;152.00;51.53;;;18.10;99.90;;;;;;5003602;28;20054;-68
2021/07/14 03:02:58;;;;;;;124.35;42.58;;;18.10;99.90;;;;;;4989799;28;20121;-67
2021/07/14 03:05:26;;;;;;;155.65;53.00;;;18.10;99.90;;;;;;4988196;28;20046;-69
2021/07/14 03:07:53;;;;;;;142.00;51.28;;;18.10;99.90;;;;;;4994582;28;20061;-68
2021/07/14 03:10:20;;;;;;;135.70;49.73;;;18.10;99.90;;;;;;5000439;28;20788;-68
2021/07/14 03:12:50;;;;;;;157.98;53.30;;;18.10;99.90;;;;;;4999665;28;20314;-69
2021/07/14 03:15:17;;;;;;;133.57;52.97;;;18.20;99.90;;;;;;5001496;28;20038;-68
2021/07/14 03:17:44;;;;;;;123.13;51.10;;;18.10;99.90;;;;;;5003157;28;20042;-69
2021/07/14 03:20:14;;;;;;;116.55;51.10;;;18.20;99.90;;;;;;4995796;28;20508;-68
2021/07/14 03:22:47;;;;;;;104.70;47.60;;;18.20;99.90;;;;;;4995501;28;20432;-68
2021/07/14 03:25:15;;;;;;;100.28;47.55;;;18.20;99.90;;;;;;5000277;28;20498;-68
2021/07/14 03:27:44;;;;;;;106.35;48.72;;;18.10;99.90;;;;;;5004557;28;20045;-68
2021/07/14 03:30:11;;;;;;;99.97;48.42;;;18.10;99.90;;;;;;4995931;28;20055;-68
2021/07/14 03:32:39;;;;;;;98.70;51.57;;;18.10;99.90;;;;;;5002552;28;20050;-69
2021/07/14 03:35:05;;;;;;;86.50;50.22;;;18.10;99.90;;;;;;4991774;28;20062;-68
2021/07/14 03:37:31;;;;;;;82.78;46.92;;;18.20;99.90;;;;;;5002752;28;20471;-69
2021/07/14 03:39:57;;;;;;;90.32;48.75;;;18.20;99.90;;;;;;4998549;28;20042;-69
2021/07/14 03:42:24;;;;;;;90.55;47.17;;;18.10;99.90;;;;;;5003061;28;20402;-69
2021/07/14 03:44:52;;;;;;;86.35;50.75;;;18.20;99.90;;;;;;5003594;28;20046;-69
2021/07/14 03:47:19;;;;;;;87.35;50.05;;;18.20;99.90;;;;;;4999223;28;20463;-69
2021/07/14 03:49:46;;;;;;;78.13;45.70;;;18.20;99.90;;;;;;4996224;28;20061;-67
2021/07/14 03:52:14;;;;;;;73.03;44.92;;;18.20;99.90;;;;;;5003743;28;20047;-68
2021/07/14 03:54:40;;;;;;;81.13;44.63;;;18.20;99.90;;;;;;5003654;28;20046;-67
2021/07/14 03:57:09;;;;;;;76.15;44.70;;;18.20;99.90;;;;;;5003753;28;20058;-68
2021/07/14 03:59:37;;;;;;;83.97;47.22;;;18.20;99.90;;;;;;5003160;28;20042;-68
2021/07/14 04:02:06;;;;;;;73.60;44.50;;;18.20;99.90;;;;;;5002942;28;20202;-68
2021/07/14 04:04:32;;;;;;;76.93;46.78;;;18.20;99.90;;;;;;4996527;28;20511;-70
2021/07/14 04:07:13;;;;;;;74.22;45.08;;;18.20;99.90;;;;;;5003342;28;20070;-69
2021/07/14 04:09:42;;;;;;;74.95;45.85;;;18.30;99.90;;;;;;4995639;28;20104;-68
2021/07/14 04:12:08;;;;;;;79.50;47.05;;;18.30;99.90;;;;;;5003390;28;20082;-68
2021/07/14 04:14:33;;;;;;;76.53;47.33;;;18.30;99.90;;;;;;4997493;28;20038;-70
2021/07/14 04:16:59;;;;;;;80.07;48.13;;;18.30;99.90;;;;;;5004141;28;20072;-70
2021/07/14 04:19:26;;;;;;;71.72;44.85;;;18.30;99.90;;;;;;5001262;28;20046;-70
2021/07/14 04:21:53;;;;;;;78.20;45.27;;;18.30;99.90;;;;;;5001744;28;20043;-69
2021/07/14 04:24:19;;;;;;;70.07;43.95;;;18.40;99.90;;;;;;4998181;28;20309;-68
2021/07/14 04:26:46;;;;;;;76.20;44.55;;;18.40;99.90;;;;;;5003796;28;20046;-69
2021/07/14 04:29:12;;;;;;;76.20;45.75;;;18.40;99.90;;;;;;4994757;28;20091;-70
2021/07/14 04:31:40;;;;;;;68.90;42.40;;;18.40;99.90;;;;;;5006524;28;20150;-69
2021/07/14 04:34:06;;;;;;;68.00;41.38;;;18.40;99.90;;;;;;5006644;28;20054;-70
2021/07/14 04:36:34;;;;;;;56.85;38.97;;;18.40;99.90;;;;;;5007044;28;20042;-69
2021/07/14 04:39:00;;;;;;;62.85;40.45;;;18.40;99.90;;;;;;5006120;28;20042;-69
2021/07/14 04:41:27;;;;;;;61.63;39.63;;;18.40;99.90;;;;;;5007229;28;20042;-68
2021/07/14 04:43:55;;;;;;;63.55;39.30;;;18.40;99.90;;;;;;4996593;28;20042;-69
2021/07/14 04:46:22;;;;;;;53.42;35.40;;;18.40;99.90;;;;;;5005401;28;20038;-70
2021/07/14 04:48:47;;;;;;;55.50;34.67;;;18.40;99.90;;;;;;5006611;28;20042;-69
2021/07/14 04:51:13;;;;;;;53.35;34.92;;;18.40;99.90;;;;;;5006507;28;20085;-69
2021/07/14 04:53:39;;;;;;;47.92;33.05;;;18.40;99.90;;;;;;5006524;28;20057;-68
2021/07/14 04:56:05;;;;;;;54.22;33.17;;;18.40;99.90;;;;;;5006715;28;20048;-69
2021/07/14 04:58:32;;;;;;;50.35;31.92;;;18.40;99.90;;;;;;5004039;28;20042;-69
2021/07/14 05:00:58;;;;;;;48.63;31.65;;;18.40;99.90;;;;;;4993661;28;20110;-69
2021/07/14 05:03:24;;;;;;;45.85;30.33;;;18.40;99.90;;;;;;5000011;28;20132;-69
2021/07/14 05:05:51;;;;;;;45.00;31.50;;;18.40;99.90;;;;;;5006453;28;20096;-68
2021/07/14 05:08:17;;;;;;;44.13;30.67;;;18.50;99.90;;;;;;5004824;28;20057;-69
2021/07/14 05:10:43;;;;;;;42.40;29.52;;;18.50;99.90;;;;;;5001089;28;20043;-70
2021/07/14 05:13:09;;;;;;;47.95;30.58;;;18.50;99.90;;;;;;5001860;28;20044;-70
2021/07/14 05:15:34;;;;;;;42.00;27.40;;;18.50;99.90;;;;;;4995005;28;20129;-70
2021/07/14 05:18:00;;;;;;;45.58;29.25;;;18.50;99.90;;;;;;4998919;28;20082;-69
2021/07/14 05:20:26;;;;;;;43.13;27.65;;;18.50;99.90;;;;;;4994961;28;20043;-70
2021/07/14 05:22:52;;;;;;;40.03;26.67;;;18.50;99.90;;;;;;5006262;28;20520;-68
2021/07/14 05:25:18;;;;;;;38.28;25.88;;;18.50;99.90;;;;;;5005407;28;20046;-70
2021/07/14 05:27:44;;;;;;;39.33;25.13;;;18.50;99.90;;;;;;4996900;28;20050;-69
2021/07/14 05:30:11;;;;;;;36.03;24.95;;;18.60;99.90;;;;;;5003924;28;20054;-69
2021/07/14 05:32:37;;;;;;;36.25;24.85;;;18.60;99.90;;;;;;5005648;28;20057;-69
2021/07/14 05:35:05;;;;;;;36.22;24.65;;;18.70;99.90;;;;;;5005003;28;20128;-70
2021/07/14 05:37:31;;;;;;;33.22;24.27;;;18.80;99.90;;;;;;4988531;28;20042;-69
2021/07/14 05:39:57;;;;;;;34.33;23.65;;;18.80;99.90;;;;;;5001462;28;20038;-69
2021/07/14 05:42:23;;;;;;;31.77;23.30;;;18.90;99.90;;;;;;5006084;28;20200;-69
2021/07/14 05:44:49;;;;;;;29.95;23.00;;;18.90;99.90;;;;;;5005361;28;20050;-69
2021/07/14 05:47:14;;;;;;;32.85;23.15;;;18.90;99.90;;;;;;4989659;28;20050;-69
2021/07/14 05:49:41;;;;;;;31.83;21.38;;;19.00;99.90;;;;;;4993707;28;20098;-69
2021/07/14 05:52:08;;;;;;;25.92;19.83;;;19.00;99.90;;;;;;5002084;28;20049;-70
2021/07/14 05:54:34;;;;;;;26.30;17.73;;;19.10;99.90;;;;;;5001752;28;20046;-61
2021/07/14 05:57:00;;;;;;;22.10;15.32;;;19.20;99.90;;;;;;4992090;28;20101;-64
2021/07/14 05:59:26;;;;;;;23.65;16.60;;;19.50;99.90;;;;;;4999526;28;20046;-63
2021/07/14 06:01:52;;;;;;;21.15;16.83;;;19.80;99.90;;;;;;5002817;28;20418;-63
2021/07/14 06:04:17;;;;;;;25.13;17.38;;;19.90;99.90;;;;;;5000569;28;20047;-63
2021/07/14 06:06:43;;;;;;;23.67;17.17;;;20.10;99.90;;;;;;4997169;28;20042;-63
2021/07/14 06:09:10;;;;;;;23.92;14.60;;;20.10;99.90;;;;;;4995767;28;20058;-63
2021/07/14 06:11:35;;;;;;;26.33;16.52;;;20.20;99.90;;;;;;4995303;28;20077;-63
2021/07/14 06:14:02;;;;;;;19.52;16.05;;;20.30;99.90;;;;;;5002893;28;20070;-63
2021/07/14 06:16:28;;;;;;;23.05;15.63;;;20.30;99.90;;;;;;4999018;28;20042;-63
2021/07/14 06:18:54;;;;;;;19.17;13.30;;;20.30;99.90;;;;;;5001263;28;20043;-63
2021/07/14 06:21:23;;;;;;;18.95;11.95;;;20.40;99.90;;;;;;4999507;28;20049;-63
2021/07/14 06:23:49;;;;;;;23.70;14.25;;;20.50;99.90;;;;;;5002737;28;20051;-63
2021/07/14 06:26:15;;;;;;;19.67;13.93;;;20.50;99.90;;;;;;5000726;28;20058;-63
2021/07/14 06:28:41;;;;;;;17.60;12.45;;;20.40;99.90;;;;;;5003117;28;20061;-63
2021/07/14 06:31:07;;;;;;;13.93;12.10;;;20.50;99.90;;;;;;4996574;28;20058;-64
2021/07/14 06:33:35;;;;;;;21.95;13.73;;;20.50;99.90;;;;;;5005420;28;20256;-63
2021/07/14 06:36:02;;;;;;;23.38;14.15;;;20.30;99.90;;;;;;5001750;28;20047;-63
2021/07/14 06:38:29;;;;;;;16.23;12.02;;;20.30;99.90;;;;;;5004432;28;20053;-63
2021/07/14 06:40:55;;;;;;;14.52;12.52;;;20.40;99.90;;;;;;4998002;28;20369;-63
2021/07/14 06:43:20;;;;;;;17.75;13.10;;;20.50;99.90;;;;;;4999344;28;20105;-63
2021/07/14 06:45:47;;;;;;;16.92;13.43;;;20.40;99.90;;;;;;4985596;28;20157;-63
2021/07/14 06:48:17;;;;;;;17.60;12.70;;;20.30;99.90;;;;;;5002210;28;20530;-63
2021/07/14 06:50:43;;;;;;;17.80;13.38;;;20.40;99.90;;;;;;5003179;28;20046;-63
2021/07/14 06:53:10;;;;;;;17.77;13.25;;;20.50;99.90;;;;;;4996736;28;20042;-63
2021/07/14 06:55:36;;;;;;;19.33;13.68;;;20.50;99.90;;;;;;4996034;28;20057;-64
2021/07/14 06:58:01;;;;;;;17.67;12.98;;;20.40;99.90;;;;;;4993184;28;20050;-63
2021/07/14 07:00:28;;;;;;;15.88;12.95;;;20.60;99.90;;;;;;4994222;28;20054;-63
2021/07/14 07:02:54;;;;;;;16.67;13.20;;;20.60;99.90;;;;;;4993584;28;20051;-63
2021/07/14 07:05:20;;;;;;;17.00;13.85;;;20.60;99.90;;;;;;4988984;28;20086;-62
2021/07/14 07:07:47;;;;;;;20.90;13.90;;;20.60;99.90;;;;;;4991291;28;20054;-62
2021/07/14 07:10:13;;;;;;;19.92;14.52;;;20.50;99.90;;;;;;4997424;28;20050;-62
2021/07/14 07:12:38;;;;;;;25.05;14.60;;;20.50;99.90;;;;;;4997330;28;20074;-63
2021/07/14 07:15:05;;;;;;;22.52;15.35;;;20.50;99.90;;;;;;4995594;28;20050;-63
2021/07/14 07:17:31;;;;;;;26.53;15.33;;;20.60;99.90;;;;;;4992846;28;20042;-63
2021/07/14 07:19:57;;;;;;;18.65;14.40;;;20.40;99.90;;;;;;4992195;28;20317;-63
2021/07/14 07:22:23;;;;;;;21.55;14.48;;;20.50;99.90;;;;;;4995319;28;20042;-63
2021/07/14 07:24:49;;;;;;;24.52;16.35;;;20.60;99.90;;;;;;4994424;28;20113;-63
2021/07/14 07:27:15;;;;;;;19.60;15.70;;;20.50;99.90;;;;;;4994264;28;20237;-63
2021/07/14 07:29:40;;;;;;;23.23;16.67;;;20.50;99.90;;;;;;5002397;28;20042;-63
2021/07/14 07:32:07;;;;;;;19.42;16.58;;;20.50;99.90;;;;;;4989321;28;20058;-63
2021/07/14 07:34:34;;;;;;;;;;;20.40;99.90;;;;;;4999681;28;20045;-63
2021/07/14 07:37:02;;;;;;;23.00;15.38;;;20.50;99.90;;;;;;5002169;28;19917;-63
2021/07/14 07:39:29;;;;;;;21.13;15.98;;;20.70;99.90;;;;;;4995911;28;20101;-63
2021/07/14 07:41:56;;;;;;;21.25;14.57;;;20.60;99.90;;;;;;4989508;28;20078;-63
2021/07/14 07:44:23;;;;;;;19.85;15.40;;;20.60;99.90;;;;;;4992580;28;20062;-63
2021/07/14 07:46:48;;;;;;;19.90;15.57;;;20.60;99.90;;;;;;4998865;28;20042;-63
2021/07/14 07:49:14;;;;;;;17.63;15.10;;;20.60;99.90;;;;;;4995262;28;20042;-63
2021/07/14 07:51:40;;;;;;;17.88;15.93;;;20.70;99.90;;;;;;4991838;28;20052;-63
2021/07/14 07:54:06;;;;;;;21.67;14.57;;;20.70;99.90;;;;;;4984305;28;20129;-63
2021/07/14 07:56:33;;;;;;;17.40;14.07;;;20.80;99.90;;;;;;4987358;28;20042;-63
2021/07/14 07:59:00;;;;;;;17.60;14.63;;;20.90;99.90;;;;;;4991836;28;20045;-63
2021/07/14 08:01:27;;;;;;;21.30;15.73;;;21.00;99.90;;;;;;4995547;28;20129;-62
2021/07/14 08:03:53;;;;;;;22.52;14.57;;;21.00;99.90;;;;;;4989123;28;20043;-62
2021/07/14 08:06:18;;;;;;;15.20;12.95;;;21.10;99.90;;;;;;4988894;28;20042;-62
2021/07/14 08:08:44;;;;;;;23.80;15.30;;;21.30;99.90;;;;;;4989776;28;20084;-62
2021/07/14 08:11:10;;;;;;;21.60;16.63;;;21.10;99.90;;;;;;4992401;28;20054;-63
2021/07/14 08:13:36;;;;;;;17.63;13.98;;;21.10;99.90;;;;;;4985778;28;20061;-63
2021/07/14 08:16:02;;;;;;;19.33;15.25;;;21.10;99.90;;;;;;4986437;28;20046;-63
2021/07/14 08:18:27;;;;;;;18.40;15.13;;;21.00;99.90;;;;;;4987863;28;20102;-63
2021/07/14 08:20:54;;;;;;;17.13;13.95;;;21.10;99.90;;;;;;4991208;28;20094;-63
2021/07/14 08:23:21;;;;;;;;;;;21.20;99.90;;;;;;4985776;28;20047;-63
2021/07/14 08:25:48;;;;;;;19.17;14.18;;;21.10;99.90;;;;;;4988210;28;19928;-63
2021/07/14 08:28:14;;;;;;;19.25;13.63;;;21.20;99.90;;;;;;4990515;28;20043;-63
2021/07/14 08:30:40;;;;;;;18.65;14.85;;;21.20;99.90;;;;;;4989813;28;20066;-63
2021/07/14 08:33:06;;;;;;;24.20;15.90;;;21.00;99.90;;;;;;4988957;28;20053;-63
2021/07/14 08:35:32;;;;;;;25.17;16.70;;;21.10;99.90;;;;;;4987790;28;20065;-63
2021/07/14 08:37:58;;;;;;;20.52;15.57;;;21.10;99.90;;;;;;4993479;28;20142;-63
2021/07/14 08:40:24;;;;;;;18.67;14.60;;;20.90;99.90;;;;;;4985737;28;20077;-63
2021/07/14 08:42:53;;;;;;;26.45;16.25;;;21.00;99.90;;;;;;4994530;28;20114;-62
2021/07/14 08:45:20;;;;;;;24.20;16.75;;;21.00;99.90;;;;;;4986899;28;20050;-62
2021/07/14 08:47:46;;;;;;;21.85;15.85;;;21.10;99.90;;;;;;4987896;28;20110;-62
2021/07/14 08:50:13;;;;;;;20.48;16.00;;;21.00;99.90;;;;;;4984779;28;20073;-62
2021/07/14 08:52:42;;;;;;;22.45;15.75;;;21.10;99.90;;;;;;4993197;28;20073;-63
2021/07/14 08:55:11;;;;;;;27.15;17.08;;;21.20;99.90;;;;;;4995040;28;20093;-62
2021/07/14 08:57:36;;;;;;;20.27;15.52;;;21.20;99.90;;;;;;4995825;28;20082;-62
2021/07/14 09:00:09;;;;;;;19.30;14.63;;;21.20;99.90;;;;;;4987079;28;20050;-62
2021/07/14 09:02:37;;;;;;;20.50;14.30;;;21.10;99.90;;;;;;4989840;28;20046;-62
2021/07/14 09:05:04;;;;;;;21.77;15.85;;;21.10;99.90;;;;;;4994849;28;20046;-62
2021/07/14 09:07:30;;;;;;;19.17;15.33;;;21.10;99.90;;;;;;4993689;28;20069;-62
2021/07/14 09:09:56;;;;;;;23.65;15.45;;;21.20;99.90;;;;;;4995341;28;20308;-62
2021/07/14 09:12:37;;;;;;;20.77;16.08;;;21.20;99.90;;;;;;4997475;28;20053;-62
2021/07/14 09:15:06;;;;;;;19.05;13.73;;;21.30;99.90;;;;;;4992056;28;20050;-62
2021/07/14 09:17:32;;;;;;;23.50;14.93;;;21.50;99.90;;;;;;4990657;28;20409;-63
2021/07/14 09:20:12;;;;;;;21.92;15.32;;;21.60;99.90;;;;;;4991564;28;20093;-62
2021/07/14 09:22:38;;;;;;;21.00;14.75;;;21.60;99.90;;;;;;4992194;28;20055;-62
2021/07/14 09:25:13;;;;;;;22.83;14.23;;;21.50;99.90;;;;;;4987206;28;20039;-61
2021/07/14 09:27:55;;;;;;;19.40;13.57;;;21.60;99.90;;;;;;4989350;28;20050;-62
2021/07/14 09:30:23;;;;;;;17.42;13.77;;;21.80;99.90;;;;;;4990787;28;20519;-62
2021/07/14 09:32:54;;;;;;;18.38;12.70;;;21.70;99.90;;;;;;4995364;28;20054;-62
2021/07/14 09:35:29;;;;;;;20.05;13.50;;;21.70;99.90;;;;;;4997749;28;20043;-62
2021/07/14 09:37:56;;;;;;;18.48;13.23;;;21.80;99.90;;;;;;4988195;28;20078;-62
2021/07/14 09:40:22;;;;;;;;;;;21.80;99.90;;;;;;4988368;28;20051;-62
2021/07/14 09:42:55;;;;;;;21.05;12.38;;;21.90;99.90;;;;;;4995411;28;19932;-62
2021/07/14 09:45:39;;;;;;;17.83;12.50;;;21.70;99.90;;;;;;4993762;28;20071;-62
2021/07/14 09:48:06;;;;;;;18.38;12.70;;;21.70;99.90;;;;;;4994228;28;20043;-62
2021/07/14 09:50:33;;;;;;;16.23;12.18;;;21.80;99.90;;;;;;4987754;28;20047;-62
2021/07/14 09:53:08;;;;;;;20.83;13.43;;;22.00;99.90;;;;;;4990610;28;20050;-62
2021/07/14 09:55:35;;;;;;;19.70;13.00;;;21.90;99.90;;;;;;4992380;28;20043;-62
2021/07/14 09:58:11;;;;;;;18.10;14.50;;;21.90;99.90;;;;;;4988717;28;20054;-62
2021/07/14 10:00:45;;;;;;;21.63;13.50;;;22.00;99.90;;;;;;4996109;28;20047;-61
2021/07/14 10:03:18;;;;;;;19.40;13.32;;;21.90;99.90;;;;;;4990456;28;20058;-62
2021/07/14 10:05:44;;;;;;;20.25;13.48;;;21.80;99.90;;;;;;4991774;28;20065;-62
2021/07/14 10:08:20;;;;;;;21.90;11.15;;;22.00;99.90;;;;;;4989711;28;20038;-62
2021/07/14 10:10:49;;;;;;;20.05;13.35;;;21.80;99.90;;;;;;4994647;28;20570;-62
2021/07/14 10:13:16;;;;;;;20.88;14.40;;;21.70;99.90;;;;;;4995186;28;20043;-62
2021/07/14 10:15:42;;;;;;;20.70;12.93;;;21.60;99.90;;;;;;5000389;28;20085;-62
2021/07/14 10:18:12;;;;;;;21.05;13.38;;;21.60;99.90;;;;;;4992150;28;20042;-62
2021/07/14 10:20:43;;;;;;;21.77;13.40;;;21.50;99.90;;;;;;4987864;28;20049;-62
2021/07/14 10:23:15;;;;;;;19.95;13.38;;;21.60;99.90;;;;;;4996759;28;20058;-62
2021/07/14 10:25:43;;;;;;;17.45;12.13;;;21.70;99.90;;;;;;4991244;28;20050;-62
2021/07/14 10:28:12;;;;;;;23.90;15.45;;;21.60;99.90;;;;;;4988356;28;20058;-62
2021/07/14 10:30:40;;;;;;;28.63;13.57;;;21.60;99.90;;;;;;4989609;28;20042;-62
2021/07/14 10:33:09;;;;;;;23.30;14.60;;;21.70;99.90;;;;;;4993109;28;20062;-61
2021/07/14 10:35:42;;;;;;;19.35;12.35;;;21.40;99.90;;;;;;4993845;28;20239;-62
2021/07/14 10:38:19;;;;;;;32.00;14.98;;;21.60;99.90;;;;;;4994101;28;20049;-62
2021/07/14 10:40:47;;;;;;;23.92;14.27;;;21.60;99.90;;;;;;4986594;28;20059;-62
2021/07/14 10:43:18;;;;;;;25.05;15.52;;;21.50;99.90;;;;;;4989205;28;20042;-62
2021/07/14 10:45:48;;;;;;;19.83;14.45;;;21.60;99.90;;;;;;4986779;28;20046;-62
2021/07/14 10:48:16;;;;;;;20.00;12.50;;;21.80;99.90;;;;;;4988842;28;20655;-62
2021/07/14 10:50:43;;;;;;;25.63;14.65;;;22.00;99.90;;;;;;4987102;28;20054;-62
2021/07/14 10:53:16;;;;;;;18.35;12.77;;;21.80;99.90;;;;;;4994138;28;20050;-62
2021/07/14 10:55:44;;;;;;;22.60;13.65;;;21.60;99.90;;;;;;4988704;28;20053;-62
2021/07/14 10:58:13;;;;;;;17.98;13.25;;;21.90;99.90;;;;;;4994089;28;20046;-62
2021/07/14 11:00:41;;;;;;;18.50;13.13;;;21.90;99.90;;;;;;4990970;28;20050;-62
2021/07/14 11:03:27;;;;;;;18.85;12.68;;;21.90;99.90;;;;;;4992700;28;20050;-62
2021/07/14 11:05:53;;;;;;;23.77;13.77;;;22.00;99.90;;;;;;4988178;28;20138;-61
2021/07/14 11:08:47;;;;;;;19.48;13.57;;;22.30;99.90;;;;;;4991407;28;20468;-61
2021/07/14 11:11:16;;;;;;;18.40;13.20;;;22.60;99.90;;;;;;4993416;28;20042;-61
2021/07/14 11:13:46;;;;;;;20.27;11.52;;;22.50;99.90;;;;;;4992558;28;20050;-61
2021/07/14 11:16:28;;;;;;;23.33;12.05;;;22.90;99.90;;;;;;4991834;28;20097;-61
2021/07/14 11:19:17;;;;;;;18.52;12.60;;;23.00;99.90;;;;;;4992387;28;20050;-61
2021/07/14 11:21:45;;;;;;;19.75;12.25;;;22.80;99.90;;;;;;4988321;28;20506;-62
2021/07/14 11:24:11;;;;;;;19.90;12.75;;;22.70;99.90;;;;;;4991140;28;20122;-62
2021/07/14 11:26:37;;;;;;;27.10;13.27;;;22.80;99.90;;;;;;4992476;28;20051;-62
2021/07/14 11:29:15;;;;;;;21.13;12.38;;;23.10;99.90;;;;;;4990849;28;20124;-62
2021/07/14 11:31:42;;;;;;;19.75;11.52;;;23.00;99.90;;;;;;4988770;28;20050;-62
2021/07/14 11:34:37;;;;;;;;;;;23.40;99.90;;;;;;4989467;28;20049;-62
2021/07/14 11:37:29;;;;;;;22.55;13.00;;;23.20;99.90;;;;;;4988865;28;19922;-62
2021/07/14 11:39:55;;;;;;;15.60;10.60;;;23.20;99.90;;;;;;4994401;28;20047;-62
2021/07/14 11:42:21;;;;;;;22.95;11.15;;;23.00;99.90;;;;;;4985680;28;20097;-62
2021/07/14 11:44:53;;;;;;;21.45;11.05;;;23.00;99.90;;;;;;4989760;28;20058;-62
2021/07/14 11:47:32;;;;;;;21.25;11.45;;;22.90;99.90;;;;;;4991180;28;20046;-62
2021/07/14 11:49:57;;;;;;;16.27;10.43;;;23.20;99.90;;;;;;4991833;28;20069;-62
2021/07/14 11:52:39;;;;;;;15.07;10.32;;;23.20;99.90;;;;;;4991098;28;20038;-62
2021/07/14 11:55:23;;;;;;;20.40;10.82;;;23.10;99.90;;;;;;4986014;28;20055;-62
2021/07/14 11:57:53;;;;;;;15.60;9.02;;;23.30;99.90;;;;;;4989413;28;20038;-62
2021/07/14 12:00:36;;;;;;;12.93;8.85;;;23.20;99.90;;;;;;4993294;28;20042;-63
2021/07/14 12:03:05;;;;;;;16.95;9.88;;;23.60;99.90;;;;;;4990985;28;20054;-63
2021/07/14 12:05:36;;;;;;;16.30;10.90;;;23.50;99.90;;;;;;4985285;28;20134;-63
2021/07/14 12:08:14;;;;;;;14.32;9.48;;;23.60;99.90;;;;;;4990980;28;20051;-63
2021/07/14 12:10:43;;;;;;;17.00;10.45;;;23.60;99.90;;;;;;4997993;28;20053;-63
2021/07/14 12:13:09;;;;;;;11.23;10.02;;;23.80;99.90;;;;;;4989636;28;20406;-62
2021/07/14 12:15:46;;;;;;;14.57;9.13;;;23.70;99.90;;;;;;4985441;28;20446;-63
2021/07/14 12:18:12;;;;;;;14.85;10.25;;;23.60;99.90;;;;;;4989659;28;20046;-62
2021/07/14 12:20:50;;;;;;;18.52;10.25;;;23.60;99.90;;;;;;4988303;28;20042;-62
2021/07/14 12:23:17;;;;;;;14.90;11.13;;;23.70;99.90;;;;;;4988119;28;20099;-63
2021/07/14 12:25:43;;;;;;;17.83;10.45;;;23.90;99.90;;;;;;4991266;28;20053;-63
2021/07/14 12:28:14;;;;;;;18.20;9.55;;;24.00;99.90;;;;;;4988467;28;20066;-63
2021/07/14 12:30:46;;;;;;;12.60;9.02;;;24.10;99.90;;;;;;4989223;28;20410;-64
2021/07/14 12:33:15;;;;;;;14.63;10.18;;;24.00;99.90;;;;;;4990413;28;20059;-63
2021/07/14 12:35:43;;;;;;;13.07;9.95;;;23.90;99.90;;;;;;4992807;28;20058;-64
2021/07/14 12:38:14;;;;;;;15.95;9.65;;;24.20;99.90;;;;;;4989979;28;20074;-63
2021/07/14 12:40:44;;;;;;;14.23;9.95;;;24.50;99.90;;;;;;4992539;28;20072;-63
2021/07/14 12:43:15;;;;;;;17.20;9.75;;;24.60;99.90;;;;;;4996839;28;20106;-67